Flight Track Log - Related Links

Times and Time Zones

All times are in EDT time to prevent confusion due to time zone crossing. See the CSN3814 flight status page for this flight to view local times or setup timezone preferences in your user account.

Time Position Orientation Groundspeed Altitude Reporting Facility
EDT Latitude Longitude Course Direction KTS MPH feet Rate Location/Type
Mon 11:35:00 PM 31.6759 117.2443 204° Southwest  Level Estimated
Mon 11:36:00 PM 31.5717 117.1903 204° Southwest  Level Estimated
Mon 11:37:00 PM 31.4676 117.1364 204° Southwest  Level Estimated
Mon 11:38:00 PM 31.3634 117.0826 204° Southwest  Level Estimated
Mon 11:39:00 PM 31.2591 117.0290 204° Southwest  Level Estimated
Mon 11:40:00 PM 31.1549 116.9755 204° Southwest  Level Estimated
Mon 11:41:00 PM 31.0506 116.9221 204° Southwest  Level Estimated
Mon 11:42:00 PM 30.9464 116.8688 204° Southwest  Level Estimated
Mon 11:43:00 PM 30.8420 116.8156 204° Southwest  Level Estimated
Mon 11:44:00 PM 30.7377 116.7625 204° Southwest  Level Estimated
Mon 11:45:00 PM 30.6334 116.7096 204° Southwest  Level Estimated
Mon 11:46:00 PM 30.5290 116.6567 204° Southwest  Level Estimated
Mon 11:47:00 PM 30.4246 116.6040 204° Southwest  Level Estimated
Mon 11:48:00 PM 30.3202 116.5514 204° Southwest  Level Estimated
Mon 11:49:00 PM 30.2157 116.4989 203° Southwest  Level Estimated
Mon 11:50:00 PM 30.1113 116.4465 203° Southwest  Level Estimated
Mon 11:51:00 PM 30.0068 116.3942 203° Southwest  Level Estimated
Mon 11:52:00 PM 29.9023 116.3420 203° Southwest  Level Estimated
Mon 11:53:00 PM 29.7978 116.2900 203° Southwest  Level Estimated
Mon 11:54:00 PM 29.6932 116.2380 203° Southwest  Level Estimated
Mon 11:55:00 PM 29.5887 116.1862 203° Southwest  Level Estimated
Mon 11:56:00 PM 29.4841 116.1345 203° Southwest  Level Estimated
Mon 11:57:00 PM 29.3795 116.0828 203° Southwest  Level Estimated
Mon 11:58:00 PM 29.2749 116.0313 203° Southwest  Level Estimated
Mon 11:59:00 PM 29.1702 115.9799 203° Southwest  Level Estimated
Tue 12:00:00 AM 29.0656 115.9286 203° Southwest  Level Estimated
Tue 12:01:00 AM 28.9609 115.8774 203° Southwest  Level Estimated
Tue 12:02:00 AM 28.8562 115.8263 203° Southwest  Level Estimated
Tue 12:03:00 AM 28.7515 115.7753 203° Southwest  Level Estimated
Tue 12:04:00 AM 28.6467 115.7244 203° Southwest  Level Estimated
Tue 12:05:00 AM 28.5420 115.6736 203° Southwest  Level Estimated
Tue 12:06:00 AM 28.4372 115.6229 203° Southwest  Level Estimated
Tue 12:07:00 AM 28.3324 115.5723 203° Southwest  Level Estimated
Tue 12:08:00 AM 28.2276 115.5218 203° Southwest  Level Estimated
Tue 12:09:00 AM 28.1228 115.4714 203° Southwest  Level Estimated
Tue 12:10:00 AM 28.0179 115.4211 203° Southwest  Level Estimated
Tue 12:11:00 AM 27.9131 115.3709 203° Southwest  Level Estimated
Tue 12:12:00 AM 27.8082 115.3208 203° Southwest  Level Estimated
Tue 12:13:00 AM 27.7033 115.2708 203° Southwest  Level Estimated
Tue 12:14:00 AM 27.5984 115.2209 203° Southwest  Level Estimated
Tue 12:15:00 AM 27.4934 115.1711 203° Southwest  Level Estimated
Tue 12:16:00 AM 27.3885 115.1214 203° Southwest  Level Estimated
Tue 12:17:00 AM 27.2835 115.0718 203° Southwest  Level Estimated
Tue 12:18:00 AM 27.1785 115.0222 203° Southwest  Level Estimated
Tue 12:19:00 AM 27.0735 114.9728 203° Southwest  Level Estimated
Tue 12:20:00 AM 26.9685 114.9235 203° Southwest  Level Estimated
Tue 12:21:00 AM 26.8634 114.8742 203° Southwest  Level Estimated
Tue 12:22:00 AM 26.7584 114.8251 203° Southwest  Level Estimated
Tue 12:23:00 AM 26.6533 114.7760 203° Southwest  Level Estimated
Tue 12:24:00 AM 26.5482 114.7270 203° Southwest  Level Estimated
Tue 12:25:00 AM 26.4431 114.6781 203° Southwest  Level Estimated
Tue 12:26:00 AM 26.3379 114.6293 203° Southwest  Level Estimated
Tue 12:27:00 AM 26.2328 114.5806 203° Southwest  Level Estimated
Tue 12:28:00 AM 26.1276 114.5320 203° Southwest  Level Estimated
Tue 12:29:00 AM 26.0225 114.4834 203° Southwest  Level Estimated
Tue 12:30:00 AM 25.9173 114.4350 203° Southwest  Level Estimated
Tue 12:31:00 AM 25.8121 114.3866 202° Southwest  Level Estimated
Tue 12:32:00 AM 25.7069 114.3383 202° Southwest  Level Estimated
Tue 12:33:00 AM 25.6016 114.2902 202° Southwest  Level Estimated
Tue 12:34:00 AM 25.4963 114.2420 202° Southwest  Level Estimated
Tue 12:35:00 AM 25.3911 114.1940 202° Southwest  Level Estimated
Tue 12:36:00 AM 25.2858 114.1461 202° Southwest  Level Estimated
Tue 12:37:00 AM 25.1805 114.0982 202° Southwest  Level Estimated
Tue 12:38:00 AM 25.0752 114.0504 202° Southwest  Level Estimated
Tue 12:39:00 AM 24.9698 114.0027 202° Southwest  Level Estimated
Tue 12:40:00 AM 24.8645 113.9551 202° Southwest  Level Estimated
Tue 12:41:00 AM 24.7591 113.9076 202° Southwest  Level Estimated
Tue 12:42:00 AM 24.6537 113.8602 202° Southwest  Level Estimated
Tue 12:43:00 AM 24.5484 113.8128 202° Southwest  Level Estimated
Tue 12:44:00 AM 24.4429 113.7655 202° Southwest  Level Estimated
Tue 12:45:00 AM 24.3375 113.7183 202° Southwest  Level Estimated
Tue 12:46:00 AM 24.2321 113.6712 202° Southwest  Level Estimated
Tue 12:47:00 AM 24.1266 113.6241 202° Southwest  Level Estimated
Tue 12:48:00 AM 24.0212 113.5771 202° Southwest  Level Estimated
Tue 12:49:00 AM 23.9157 113.5302 202° Southwest  Level Estimated
Tue 12:50:00 AM 23.8102 113.4834 202° Southwest  Level Estimated
Tue 12:51:00 AM 23.7047 113.4367 202° Southwest  Level Estimated
Tue 12:52:00 AM 23.5992 113.3900 202° Southwest  Level Estimated
Tue 12:53:00 AM 23.4936 113.3434 202° Southwest  Level Estimated
Tue 12:54:00 AM 23.3924 113.2988 202° Southwest  Level Estimated
Tue 12:55:00 AM 23.3924 113.2988 223° Southwest  Level Estimated
Tue 12:56:00 AM 23.3924 113.2988 223° Southwest  Level Estimated
Tue 12:57:00 AM 23.3924 113.2988 223° Southwest  Level Estimated
Tue 12:58:00 AM 23.3924 113.2988 223° Southwest  Level Estimated
Tue 12:59:00 AM 23.3924 113.2988 223° Southwest  Level Estimated
Tue 01:00:00 AM 23.3924 113.2988 223° Southwest  Level Estimated
Tue 01:01:00 AM 23.3924 113.2988 223° Southwest  Level Estimated
Tue 01:02:00 AM 23.3924 113.2988 223° Southwest  Level Estimated
Tue 01:03:00 AM 23.3924 113.2988 223° Southwest  Level Estimated
Tue 01:04:00 AM 23.3924 113.2988 223° Southwest  Level Estimated
Tue 01:05:00 AM 23.3924 113.2988 223° Southwest  Level Estimated
Tue 01:06:00 AM 23.3924 113.2988 223° Southwest  Level Estimated
Tue 01:07:00 AM 23.3924 113.2988 223° Southwest  Level Estimated
Tue 01:08:00 AM 23.3924 113.2988 223° Southwest  Level Estimated

Login

Don't have an account? Register now (free) for customized features, flight alerts, and more!